Time;durP1;ratioP1;P1;durP2;ratioP2;P2;SDS_P1;SDS_P2;PMS_P1;PMS_P2;Temp;Humidity;BMP_temperature;BMP_pressure;BME280_temperature;BME280_humidity;BME280_pressure;Samples;Min_cycle;Max_cycle;Signal;HPM_P1;HPM_P2
2022/11/12 00:00:51;;;;;;;5.38;1.33;;;;;;;12.90;74.74;101299.00;5030463;28;20053;-48
2022/11/12 00:03:18;;;;;;;5.05;1.63;;;;;;;12.90;73.80;101299.00;5019643;28;20103;-49
2022/11/12 00:05:46;;;;;;;4.30;1.52;;;;;;;12.85;75.13;101294.66;5022130;28;20128;-50
2022/11/12 00:08:12;;;;;;;6.57;1.88;;;;;;;12.85;74.22;101289.44;5016844;28;20041;-51
2022/11/12 00:10:39;;;;;;;4.47;1.70;;;;;;;12.82;75.22;101292.00;5023705;28;20084;-50
2022/11/12 00:13:06;;;;;;;5.10;1.98;;;;;;;12.79;74.66;101286.78;5019107;28;20041;-50
2022/11/12 00:15:32;;;;;;;5.13;2.15;;;;;;;12.79;74.27;101291.09;5026759;28;20191;-48
2022/11/12 00:17:59;;;;;;;3.75;2.00;;;;;;;12.79;74.63;101297.19;5022134;28;21750;-48
2022/11/12 00:20:26;;;;;;;5.05;2.08;;;;;;;12.77;74.65;101298.88;5022638;28;20119;-50
2022/11/12 00:22:52;;;;;;;6.72;1.77;;;;;;;12.77;74.43;101303.25;5023434;28;20042;-47
2022/11/12 00:25:19;;;;;;;3.78;1.90;;;;;;;12.78;74.37;101295.44;5024719;28;20081;-49
2022/11/12 00:27:46;;;;;;;6.35;2.72;;;;;;;12.76;73.84;101299.75;5020276;28;20081;-46
2022/11/12 00:30:12;;;;;;;4.53;2.08;;;;;;;12.77;74.54;101298.88;5020543;28;20133;-47
2022/11/12 00:32:39;;;;;;;6.82;1.98;;;;;;;12.76;74.22;101299.75;5024590;28;20640;-47
2022/11/12 00:35:06;;;;;;;4.28;1.38;;;;;;;12.76;74.95;101302.34;5022640;28;20656;-47
2022/11/12 00:37:39;;;;;;;6.15;1.98;;;;;;;12.78;74.62;101290.25;5024756;28;20042;-49
2022/11/12 00:40:06;;;;;;;3.92;2.30;;;;;;;12.80;74.28;101293.72;5017969;28;20515;-49
2022/11/12 00:42:33;;;;;;;4.57;1.88;;;;;;;12.82;73.74;101296.34;5017590;28;20128;-49
2022/11/12 00:45:00;;;;;;;5.75;2.17;;;;;;;12.84;74.15;101295.47;5021335;28;20041;-50
2022/11/12 00:47:26;;;;;;;5.75;1.67;;;;;;;12.85;74.34;101286.84;5019812;28;20128;-48
2022/11/12 00:49:53;;;;;;;8.07;2.33;;;;;;;12.88;73.38;101295.50;5024294;28;20077;-48
2022/11/12 00:52:20;;;;;;;5.97;2.20;;;;;;;12.85;73.53;101301.56;5019212;28;20069;-47
2022/11/12 00:54:48;;;;;;;6.70;2.13;;;;;;;12.79;73.36;101291.97;5018477;28;20057;-48
2022/11/12 00:57:15;;;;;;;3.63;1.77;;;;;;;12.78;74.27;101300.66;5020500;28;20160;-47
2022/11/12 00:59:42;;;;;;;4.03;1.88;;;;;;;12.78;73.53;101304.97;5022954;28;20417;-48
2022/11/12 01:02:09;;;;;;;5.88;1.27;;;;;;;12.71;74.39;101298.84;5007440;28;20129;-47
2022/11/12 01:04:35;;;;;;;3.58;1.67;;;;;;;12.72;73.31;101300.59;5010333;28;20128;-46
2022/11/12 01:07:02;;;;;;;5.55;1.65;;;;;;;12.71;73.71;101309.25;5023195;28;20065;-49
2022/11/12 01:09:28;;;;;;;4.43;1.98;;;;;;;12.64;73.58;101299.66;5019472;28;20060;-50
2022/11/12 01:11:55;;;;;;;6.57;1.70;;;;;;;12.62;72.75;101298.75;5018875;28;20080;-48
2022/11/12 01:14:22;;;;;;;5.03;2.13;;;;;;;12.49;72.46;101305.59;5022558;28;20132;-48
2022/11/12 01:16:48;;;;;;;8.75;2.15;;;;;;;12.50;71.68;101308.19;5019961;28;20068;-49
2022/11/12 01:19:16;;;;;;;6.13;1.90;;;;;;;12.53;71.96;101303.03;5020553;28;20128;-47
2022/11/12 01:21:44;;;;;;;4.07;1.77;;;;;;;12.47;72.65;101305.56;5021734;28;20038;-49
2022/11/12 01:24:12;;;;;;;3.90;2.00;;;;;;;12.49;71.36;101293.44;5025162;28;20044;-48
2022/11/12 01:26:40;;;;;;;3.45;2.25;;;;;;;12.51;71.69;101299.56;5020820;28;20053;-48
2022/11/12 01:29:08;;;;;;;5.10;1.83;;;;;;;12.52;72.32;101297.81;5021063;28;20045;-48
2022/11/12 01:31:38;;;;;;;6.10;1.67;;;;;;;12.53;72.11;101300.41;5021378;28;20129;-47
2022/11/12 01:34:08;;;;;;;4.78;1.90;;;;;;;12.55;71.17;101297.84;5023993;28;20044;-48
2022/11/12 01:36:37;;;;;;;;;;;;;;;12.39;71.85;101291.66;5024763;28;20386;-48
2022/11/12 01:39:07;;;;;;;8.43;1.67;;;;;;;12.51;71.77;101291.75;5017676;28;19924;-49
2022/11/12 01:41:37;;;;;;;6.15;1.90;;;;;;;12.53;71.86;101290.03;5017245;28;20140;-48
2022/11/12 01:44:25;;;;;;;4.20;1.95;;;;;;;12.47;72.01;101289.97;5020355;28;20119;-49
2022/11/12 01:47:17;;;;;;;6.68;2.95;;;;;;;12.46;71.70;101294.31;5014179;28;20492;-46
2022/11/12 01:49:58;;;;;;;6.53;2.10;;;;;;;12.48;72.16;101296.91;5020875;28;20773;-47
2022/11/12 01:52:38;;;;;;;4.22;1.75;;;;;;;12.52;72.11;101290.88;5013277;28;20050;-48
2022/11/12 01:55:10;;;;;;;6.60;2.63;;;;;;;12.51;71.87;101301.25;5020187;28;20049;-47
2022/11/12 01:57:42;;;;;;;4.97;1.85;;;;;;;12.46;71.79;101303.81;5023354;28;20101;-48
2022/11/12 02:00:11;;;;;;;8.07;2.38;;;;;;;12.47;72.23;101300.38;5016821;28;20041;-47
2022/11/12 02:02:38;;;;;;;8.30;4.03;;;;;;;12.43;71.43;101285.63;5014084;28;20081;-50
2022/11/12 02:05:08;;;;;;;7.60;3.15;;;;;;;12.46;72.29;101288.22;5017313;28;20459;-48
2022/11/12 02:07:40;;;;;;;8.63;2.95;;;;;;;12.38;71.96;101290.75;5015638;28;20053;-49
2022/11/12 02:10:08;;;;;;;4.15;2.17;;;;;;;12.42;71.59;101273.47;5021082;28;20120;-46
2022/11/12 02:15:22;;;;;;;4.95;2.60;;;;;;;12.42;72.09;101265.66;5017400;28;20077;-46
2022/11/12 02:17:48;;;;;;;4.13;2.33;;;;;;;12.43;71.95;101262.22;5017252;28;20677;-51
2022/11/12 02:20:15;;;;;;;8.25;3.00;;;;;;;12.42;71.80;101266.56;5022375;28;20099;-45
2022/11/12 02:22:42;;;;;;;4.88;2.47;;;;;;;12.41;71.67;101258.75;5019578;28;20061;-47
2022/11/12 02:25:13;;;;;;;8.90;3.13;;;;;;;12.41;71.85;101261.34;5013767;28;20176;-50
2022/11/12 02:27:40;;;;;;;4.88;2.92;;;;;;;12.41;71.05;101259.63;5022127;28;20212;-50
2022/11/12 02:30:06;;;;;;;4.70;2.47;;;;;;;12.40;71.54;101257.00;5021347;28;20049;-49
2022/11/12 02:32:33;;;;;;;8.27;2.67;;;;;;;12.39;72.01;101255.28;5023495;28;20140;-50
2022/11/12 02:35:00;;;;;;;5.47;2.67;;;;;;;12.39;70.91;101250.06;5018017;28;20516;-48
2022/11/12 02:37:26;;;;;;;7.18;1.90;;;;;;;12.34;72.31;101248.28;5022038;28;20083;-47
2022/11/12 02:39:53;;;;;;;4.78;2.40;;;;;;;12.34;71.23;101253.47;5024159;28;20141;-48
2022/11/12 02:42:20;;;;;;;5.72;2.83;;;;;;;12.34;71.26;101256.06;5019887;28;20053;-51
2022/11/12 02:44:46;;;;;;;6.18;2.20;;;;;;;12.34;71.03;101248.28;5017970;28;20087;-48
2022/11/12 02:47:13;;;;;;;4.03;2.25;;;;;;;12.31;72.11;101248.28;5017519;28;20106;-47
2022/11/12 02:49:40;;;;;;;4.88;2.05;;;;;;;12.28;71.40;101248.25;5021140;28;20080;-48
2022/11/12 02:52:06;;;;;;;5.88;2.08;;;;;;;12.25;71.86;101256.00;5018804;28;20146;-46
2022/11/12 02:54:33;;;;;;;3.50;2.13;;;;;;;12.21;71.11;101246.44;5019848;28;20128;-48
2022/11/12 02:57:00;;;;;;;4.00;2.08;;;;;;;12.13;71.15;101242.91;5021760;28;20110;-48
2022/11/12 02:59:26;;;;;;;4.53;2.00;;;;;;;12.03;70.96;101245.34;5019772;28;20057;-47
2022/11/12 03:01:53;;;;;;;4.20;2.85;;;;;;;11.95;72.58;101249.59;5020983;28;20080;-48
2022/11/12 03:04:19;;;;;;;5.10;2.28;;;;;;;11.87;72.18;101241.72;5016857;28;20081;-48
2022/11/12 03:06:46;;;;;;;5.80;2.03;;;;;;;11.78;71.48;101245.09;5020336;28;20148;-47
2022/11/12 03:09:13;;;;;;;4.85;2.63;;;;;;;11.67;72.02;101239.78;5015423;28;20053;-49
2022/11/12 03:11:39;;;;;;;6.38;3.08;;;;;;;11.57;72.47;101246.59;5020893;28;20042;-51
2022/11/12 03:14:06;;;;;;;3.70;1.83;;;;;;;11.46;72.19;101235.19;5020677;28;20565;-50
2022/11/12 03:16:32;;;;;;;5.63;2.55;;;;;;;11.36;72.52;101233.31;5023908;28;20562;-47
2022/11/12 03:18:59;;;;;;;6.22;3.03;;;;;;;11.24;71.67;101229.72;5021396;28;20520;-48
2022/11/12 03:21:26;;;;;;;5.45;2.53;;;;;;;11.14;72.29;101222.66;5025485;28;20054;-48
2022/11/12 03:23:52;;;;;;;8.40;2.97;;;;;;;11.06;72.54;101219.97;5021310;28;20132;-47
2022/11/12 03:26:19;;;;;;;5.18;2.70;;;;;;;10.98;72.45;101217.25;5021151;28;20534;-47
2022/11/12 03:28:46;;;;;;;4.38;2.50;;;;;;;10.92;72.51;101206.81;5022523;28;20046;-47
2022/11/12 03:31:12;;;;;;;8.55;3.08;;;;;;;10.88;72.11;101210.22;5020067;28;20133;-47
2022/11/12 03:33:39;;;;;;;4.07;2.65;;;;;;;10.83;72.08;101217.91;5021695;28;20403;-47
2022/11/12 03:36:06;;;;;;;5.32;2.83;;;;;;;10.80;72.15;101212.66;5024167;28;20096;-47
2022/11/12 03:38:33;;;;;;;6.63;2.72;;;;;;;10.76;72.39;101216.94;5024878;28;20145;-47
2022/11/12 03:40:59;;;;;;;5.88;2.50;;;;;;;10.68;73.11;101213.38;5016811;28;20493;-48
2022/11/12 03:43:26;;;;;;;5.90;2.50;;;;;;;10.61;72.51;101216.72;5027417;28;20104;-46
2022/11/12 03:45:53;;;;;;;6.18;2.75;;;;;;;10.52;72.13;101218.31;5017849;28;20139;-47
2022/11/12 03:48:19;;;;;;;7.00;2.80;;;;;;;10.45;73.56;101220.75;5021331;28;20124;-45
2022/11/12 03:50:46;;;;;;;5.80;2.40;;;;;;;10.38;73.41;101224.94;5021670;28;20045;-49
2022/11/12 03:53:13;;;;;;;6.60;3.28;;;;;;;10.42;73.78;101216.38;5024480;28;20044;-46
2022/11/12 03:55:40;;;;;;;7.97;3.72;;;;;;;10.45;74.08;101221.66;5020476;28;20077;-47
2022/11/12 03:58:06;;;;;;;7.63;3.50;;;;;;;10.47;74.29;101224.25;5022736;28;20049;-46
2022/11/12 04:00:33;;;;;;;10.45;3.47;;;;;;;10.47;74.49;101227.72;5021213;28;20121;-46
2022/11/12 04:02:59;;;;;;;6.35;2.60;;;;;;;10.46;75.25;101230.25;5017836;28;20497;-48
2022/11/12 04:10:50;;;;;;;7.80;3.60;;;;;;;10.59;75.78;101218.41;5035350;28;20413;-49
2022/11/12 04:13:33;;;;;;;6.82;2.50;;;;;;;10.59;76.00;101213.22;5019193;28;20068;-49
2022/11/12 04:21:49;;;;;;;11.77;2.83;;;;;;;10.71;76.69;101204.78;5003865;28;20080;-50
2022/11/12 04:26:53;;;;;;;8.15;3.15;;;;;;;10.80;76.28;101192.81;5020883;28;20410;-48
2022/11/12 04:32:09;;;;;;;9.15;2.90;;;;;;;10.84;76.32;101178.19;4978669;28;20122;-47
2022/11/12 04:34:35;;;;;;;9.13;3.17;;;;;;;10.79;76.40;101182.44;4977988;28;20142;-47
2022/11/12 04:37:04;;;;;;;5.50;2.58;;;;;;;10.80;76.43;101182.47;4980477;28;20179;-47
2022/11/12 04:39:31;;;;;;;6.60;3.03;;;;;;;10.71;77.22;101187.47;4976389;28;20132;-48
2022/11/12 04:47:37;;;;;;;9.35;2.95;;;;;;;10.65;76.32;101182.22;4975985;28;20133;-46
2022/11/12 04:50:11;;;;;;;7.45;3.28;;;;;;;10.63;76.42;101183.91;4977343;28;20463;-48
2022/11/12 04:52:38;;;;;;;8.02;3.00;;;;;;;10.57;76.23;101178.66;4978815;28;20073;-50
2022/11/12 04:55:05;;;;;;;7.32;2.95;;;;;;;10.56;76.46;101176.88;4978382;28;20573;-47
2022/11/12 04:57:32;;;;;;;5.53;2.88;;;;;;;10.57;75.91;101173.47;4979524;28;20177;-49
2022/11/12 04:59:58;;;;;;;5.25;2.35;;;;;;;10.52;77.11;101170.81;4982286;28;20130;-47
2022/11/12 05:02:25;;;;;;;7.75;2.67;;;;;;;10.52;76.86;101165.63;4980992;28;20073;-49
2022/11/12 05:04:51;;;;;;;8.10;3.65;;;;;;;10.51;76.70;101177.69;4980664;28;20140;-47
2022/11/12 05:07:18;;;;;;;6.97;3.03;;;;;;;10.52;76.48;101178.56;4979646;28;20130;-47
2022/11/12 05:09:45;;;;;;;7.13;3.10;;;;;;;10.51;75.91;101172.50;4979666;28;20774;-50
2022/11/12 05:12:12;;;;;;;7.07;3.03;;;;;;;10.54;76.35;101169.97;4979710;28;20051;-46
2022/11/12 05:14:38;;;;;;;6.00;2.78;;;;;;;10.53;77.32;101168.25;4978634;28;20043;-47
2022/11/12 05:17:05;;;;;;;8.90;2.75;;;;;;;10.56;77.07;101172.59;4979750;28;20133;-48
2022/11/12 05:19:33;;;;;;;6.70;2.95;;;;;;;10.59;76.32;101177.81;4977982;28;20137;-48
2022/11/12 05:22:07;;;;;;;8.05;2.90;;;;;;;10.58;77.34;101185.56;4980708;28;20050;-49
2022/11/12 05:24:54;;;;;;;7.32;2.88;;;;;;;10.60;77.32;101189.06;4981729;28;20051;-49
2022/11/12 05:27:21;;;;;;;8.95;3.08;;;;;;;10.59;76.95;101189.91;4978706;28;20130;-47
2022/11/12 05:29:47;;;;;;;6.68;3.20;;;;;;;10.62;76.88;101188.25;4978625;28;20070;-47
2022/11/12 05:32:15;;;;;;;8.25;2.72;;;;;;;10.66;77.13;101190.03;4976557;28;20074;-49
2022/11/12 05:34:42;;;;;;;8.30;2.65;;;;;;;10.67;77.68;101193.47;4981435;28;20057;-45
2022/11/12 05:37:10;;;;;;;8.40;2.58;;;;;;;10.65;78.12;101190.00;4972587;28;20502;-47
2022/11/12 05:39:37;;;;;;;6.38;2.80;;;;;;;10.70;77.79;101190.94;4968080;28;20086;-47
2022/11/12 05:42:05;;;;;;;9.13;3.03;;;;;;;10.71;77.24;101181.44;4963690;28;20074;-46
2022/11/12 05:44:40;;;;;;;5.90;2.65;;;;;;;10.64;78.32;101185.69;4965172;28;20054;-47
2022/11/12 05:47:07;;;;;;;6.93;2.50;;;;;;;10.65;78.55;101183.13;4964845;28;20049;-46
2022/11/12 05:49:33;;;;;;;6.40;2.72;;;;;;;10.69;76.96;101184.00;4967843;28;20053;-47
2022/11/12 05:52:00;;;;;;;7.43;3.80;;;;;;;10.72;77.75;101191.84;4967516;28;20634;-47
2022/11/12 05:54:26;;;;;;;9.57;3.22;;;;;;;10.74;77.69;101191.88;4967092;28;20050;-47
2022/11/12 05:56:53;;;;;;;6.82;2.67;;;;;;;10.74;77.73;101197.91;4966549;28;20043;-46
2022/11/12 05:59:21;;;;;;;8.05;3.33;;;;;;;10.73;76.91;101191.00;4966995;28;20443;-47
2022/11/12 06:01:47;;;;;;;9.07;3.25;;;;;;;10.75;77.58;101194.50;4967543;28;20551;-48
2022/11/12 06:04:15;;;;;;;8.85;3.33;;;;;;;10.77;77.16;101194.47;4966506;28;20047;-47
2022/11/12 06:06:43;;;;;;;6.60;3.72;;;;;;;10.76;77.35;101191.03;4947295;28;20129;-47
2022/11/12 06:09:10;;;;;;;6.63;2.63;;;;;;;10.76;76.64;101185.84;4966313;28;20329;-46
2022/11/12 06:11:39;;;;;;;9.43;3.55;;;;;;;10.74;77.13;101187.53;4968499;28;20050;-47
2022/11/12 06:14:06;;;;;;;9.00;3.97;;;;;;;10.70;77.25;101185.75;4966083;28;20051;-45
2022/11/12 06:16:33;;;;;;;7.43;3.15;;;;;;;10.70;77.42;101190.09;4963690;28;20142;-47
2022/11/12 06:18:59;;;;;;;9.75;3.63;;;;;;;10.64;77.62;101191.72;4965262;28;20106;-47
2022/11/12 06:21:26;;;;;;;8.40;3.22;;;;;;;10.61;78.01;101201.16;4964430;28;20063;-46
2022/11/12 06:23:57;;;;;;;9.68;3.60;;;;;;;10.57;77.80;101189.88;4967315;28;20054;-47
2022/11/12 06:26:26;;;;;;;9.10;4.93;;;;;;;10.56;78.32;101185.53;4962224;28;20615;-49
2022/11/12 06:28:53;;;;;;;11.73;4.18;;;;;;;10.54;77.59;101195.88;4962606;28;20105;-46
2022/11/12 06:31:20;;;;;;;6.82;3.10;;;;;;;10.56;77.64;101192.44;4962549;28;20055;-47
2022/11/12 06:33:47;;;;;;;9.38;3.53;;;;;;;10.54;78.04;101190.69;4964719;28;20101;-47
2022/11/12 06:36:16;;;;;;;9.27;3.38;;;;;;;10.56;78.08;101197.63;4965776;28;20039;-46
2022/11/12 06:38:44;;;;;;;7.65;3.45;;;;;;;10.54;77.24;101195.88;4964563;28;20788;-48
2022/11/12 06:41:12;;;;;;;10.00;4.18;;;;;;;10.52;77.81;101197.59;4964712;28;20414;-47
2022/11/12 06:43:40;;;;;;;10.25;3.63;;;;;;;10.52;78.05;101196.72;4962430;28;20106;-47
2022/11/12 06:46:10;;;;;;;11.15;4.05;;;;;;;10.49;77.85;101201.84;4964472;28;20056;-47
2022/11/12 06:48:37;;;;;;;10.35;4.45;;;;;;;10.54;77.95;101208.84;4962454;28;20723;-47
2022/11/12 06:51:06;;;;;;;8.15;3.08;;;;;;;10.49;78.25;101207.91;4966617;28;20073;-46
2022/11/12 06:53:33;;;;;;;9.73;4.07;;;;;;;10.57;77.84;101210.59;4964452;28;20071;-46
2022/11/12 06:56:03;;;;;;;10.75;4.22;;;;;;;10.60;78.92;101212.38;4964054;28;20045;-46
2022/11/12 06:58:29;;;;;;;13.82;4.35;;;;;;;10.63;77.71;101209.81;4964185;28;20047;-49
2022/11/12 07:00:56;;;;;;;14.65;5.88;;;;;;;10.64;78.05;101206.41;4964165;28;20820;-47
2022/11/12 07:03:23;;;;;;;11.43;5.25;;;;;;;10.66;78.47;101212.47;4962806;28;20456;-47
2022/11/12 07:05:49;;;;;;;11.45;5.05;;;;;;;10.68;77.99;101208.19;4962130;28;20051;-47
2022/11/12 07:08:16;;;;;;;14.25;4.53;;;;;;;10.72;77.97;101220.34;4966120;28;20067;-48
2022/11/12 07:10:42;;;;;;;11.23;4.63;;;;;;;10.75;78.91;101209.16;4967736;28;20157;-46
2022/11/12 07:13:09;;;;;;;13.98;5.43;;;;;;;10.76;77.79;101209.19;4964338;28;20585;-47
2022/11/12 07:15:36;;;;;;;12.35;4.97;;;;;;;10.82;77.80;101208.41;4962935;28;20125;-49
2022/11/12 07:18:02;;;;;;;13.30;4.70;;;;;;;10.87;78.45;101208.44;4965956;28;20113;-46
2022/11/12 07:20:29;;;;;;;12.90;5.15;;;;;;;10.90;77.81;101200.72;4964295;28;20070;-47
2022/11/12 07:22:59;;;;;;;17.80;5.50;;;;;;;10.95;77.52;101199.09;4965955;28;20134;-47
2022/11/12 07:25:25;;;;;;;15.65;5.53;;;;;;;10.93;78.70;101201.66;4964191;28;20055;-48
2022/11/12 07:27:53;;;;;;;13.45;5.25;;;;;;;10.97;77.77;101194.78;4964552;28;20053;-46
2022/11/12 07:30:20;;;;;;;14.80;4.80;;;;;;;10.98;78.60;101201.69;4964158;28;20487;-46
2022/11/12 07:32:47;;;;;;;14.70;5.00;;;;;;;10.99;78.53;101200.88;4962834;28;20718;-46
2022/11/12 07:35:17;;;;;;;14.15;4.47;;;;;;;10.93;78.35;101200.78;4966270;28;20050;-49
2022/11/12 07:37:44;;;;;;;10.70;5.35;;;;;;;10.97;77.87;101205.16;4965708;28;20142;-46
2022/11/12 07:40:11;;;;;;;12.55;4.38;;;;;;;11.01;78.71;101206.09;4962926;28;20046;-48
2022/11/12 07:42:38;;;;;;;14.00;4.72;;;;;;;11.02;78.51;101203.47;4964141;28;20050;-46
2022/11/12 07:45:05;;;;;;;12.35;5.50;;;;;;;10.99;78.98;101198.28;4964791;28;20406;-47
2022/11/12 07:47:31;;;;;;;11.68;4.78;;;;;;;11.07;78.33;101210.47;4964904;28;20082;-48
2022/11/12 07:49:59;;;;;;;13.35;5.20;;;;;;;11.08;77.85;101212.22;4963184;28;20097;-47
2022/11/12 07:52:25;;;;;;;10.45;5.40;;;;;;;11.07;78.67;101205.28;4963779;28;20597;-46
2022/11/12 07:54:52;;;;;;;11.80;4.43;;;;;;;11.10;77.68;101207.91;4963347;28;20702;-48
2022/11/12 07:57:19;;;;;;;16.33;5.72;;;;;;;11.10;78.54;101211.38;4965993;28;20046;-47
2022/11/12 07:59:46;;;;;;;11.18;5.50;;;;;;;11.13;78.75;101215.72;4959560;28;20142;-47
2022/11/12 08:02:12;;;;;;;12.45;5.65;;;;;;;11.14;78.92;101204.50;4965745;28;20080;-47
2022/11/12 08:04:39;;;;;;;10.15;4.90;;;;;;;11.13;78.07;101215.72;4964258;28;20471;-46
2022/11/12 08:07:05;;;;;;;12.05;5.00;;;;;;;11.18;79.16;101222.72;4962029;28;20070;-46
2022/11/12 08:09:32;;;;;;;11.95;5.25;;;;;;;11.23;79.15;101227.09;4964598;28;20085;-47
2022/11/12 08:11:59;;;;;;;14.50;8.25;;;;;;;11.25;78.23;101226.25;4958613;28;20701;-47
2022/11/12 08:14:26;;;;;;;14.93;6.70;;;;;;;11.27;78.65;101226.28;4960150;28;20682;-47
2022/11/12 08:16:52;;;;;;;14.27;5.45;;;;;;;11.30;78.79;101235.00;4962265;28;20046;-48
2022/11/12 08:19:19;;;;;;;12.68;5.75;;;;;;;11.36;77.44;101241.09;4961742;28;20150;-46
2022/11/12 08:21:46;;;;;;;14.20;5.35;;;;;;;11.32;78.54;101243.66;4963544;28;20142;-47
2022/11/12 08:24:12;;;;;;;13.80;6.63;;;;;;;11.37;78.88;101248.03;4963945;28;20565;-46
2022/11/12 08:26:39;;;;;;;14.20;5.88;;;;;;;11.41;78.69;101247.22;4959794;28;20157;-50
2022/11/12 08:29:06;;;;;;;12.60;6.47;;;;;;;11.44;78.49;101248.16;4957658;28;20581;-45
2022/11/12 08:31:35;;;;;;;10.70;5.53;;;;;;;11.48;78.03;101255.97;4962537;28;20485;-47
2022/11/12 08:34:10;;;;;;;14.60;6.53;;;;;;;11.51;78.26;101253.41;4961230;28;20181;-45
2022/11/12 08:36:39;;;;;;;13.75;5.65;;;;;;;11.49;77.69;101245.63;4963705;28;20130;-46
2022/11/12 08:39:07;;;;;;;13.32;5.53;;;;;;;11.52;77.63;101244.78;4961995;28;20153;-48
2022/11/12 08:41:33;;;;;;;16.00;6.18;;;;;;;11.55;77.80;101245.69;4956643;28;20066;-46
2022/11/12 08:44:00;;;;;;;15.75;6.50;;;;;;;11.59;78.50;101245.72;4963625;28;20046;-47
2022/11/12 08:46:33;;;;;;;13.23;6.30;;;;;;;11.64;78.78;101238.84;4963968;28;20109;-49
2022/11/12 08:49:00;;;;;;;15.40;7.00;;;;;;;11.68;78.10;101235.44;4963936;28;20059;-52
2022/11/12 08:51:27;;;;;;;13.65;6.18;;;;;;;11.65;78.66;101235.44;4963452;28;20086;-46
2022/11/12 08:53:53;;;;;;;13.30;7.28;;;;;;;11.69;77.58;101237.22;4962027;28;20495;-48
2022/11/12 08:56:20;;;;;;;14.65;5.57;;;;;;;11.72;77.43;101242.41;4964917;28;20066;-46
2022/11/12 08:58:46;;;;;;;11.80;6.35;;;;;;;11.69;79.09;101247.59;4962336;28;20138;-48
2022/11/12 09:01:13;;;;;;;15.73;6.38;;;;;;;11.75;77.54;101245.03;4964271;28;20113;-50
2022/11/12 09:03:40;;;;;;;13.35;6.22;;;;;;;11.71;77.29;101240.69;4962071;28;20092;-47
2022/11/12 09:06:06;;;;;;;12.60;6.40;;;;;;;11.76;78.88;101239.00;4960877;28;20122;-46
2022/11/12 09:08:35;;;;;;;15.45;6.60;;;;;;;11.75;78.36;101242.44;4960319;28;20082;-47
2022/11/12 09:11:02;;;;;;;13.80;6.22;;;;;;;11.80;77.81;101239.91;4957041;28;20789;-46
2022/11/12 09:13:28;;;;;;;13.43;6.05;;;;;;;11.80;78.10;101246.00;4961467;28;20050;-48
2022/11/12 09:16:00;;;;;;;13.43;5.60;;;;;;;11.86;77.27;101239.13;4964160;28;20101;-46
2022/11/12 09:18:27;;;;;;;17.98;6.85;;;;;;;11.89;78.23;101241.75;4962992;28;20062;-47
2022/11/12 09:20:59;;;;;;;15.40;5.70;;;;;;;11.89;77.99;101240.00;4959772;28;20051;-51
2022/11/12 09:23:25;;;;;;;13.07;6.47;;;;;;;11.95;78.35;101236.59;4960875;28;20170;-49
2022/11/12 09:25:54;;;;;;;12.18;6.47;;;;;;;12.01;78.45;101239.28;4966168;28;20065;-47
2022/11/12 09:28:21;;;;;;;15.32;6.43;;;;;;;12.08;77.21;101229.84;4962043;28;20113;-47
2022/11/12 09:30:49;;;;;;;19.10;6.18;;;;;;;12.07;77.90;101235.91;4963297;28;20148;-47
2022/11/12 09:33:20;;;;;;;13.35;6.38;;;;;;;12.10;77.52;101243.75;4966239;28;20050;-46
2022/11/12 09:35:48;;;;;;;13.52;5.68;;;;;;;12.12;77.12;101242.00;4973925;28;20113;-46
2022/11/12 09:38:16;;;;;;;14.13;6.30;;;;;;;12.19;77.94;101237.75;4966115;28;20830;-47
2022/11/12 09:40:59;;;;;;;15.40;6.80;;;;;;;12.16;77.12;101242.94;4964504;28;20150;-47
2022/11/12 09:43:33;;;;;;;14.10;6.53;;;;;;;12.22;76.97;101237.78;4991455;28;20137;-46
2022/11/12 09:46:17;;;;;;;13.65;6.13;;;;;;;12.23;77.04;101242.13;4964743;28;21260;-47
2022/11/12 09:49:01;;;;;;;17.33;7.25;;;;;;;12.25;76.82;101247.31;4960576;28;20051;-48
2022/11/12 09:51:32;;;;;;;16.85;6.35;;;;;;;12.26;78.17;101249.94;4964639;28;20145;-46
2022/11/12 09:54:05;;;;;;;14.88;6.40;;;;;;;12.34;76.71;101243.06;4960186;28;20160;-47
2022/11/12 09:56:32;;;;;;;16.48;6.88;;;;;;;12.48;76.81;101239.75;4963907;28;20141;-50
2022/11/12 09:58:59;;;;;;;12.60;6.03;;;;;;;12.60;77.32;101245.03;4965569;28;20050;-47
2022/11/12 10:01:47;;;;;;;15.95;6.25;;;;;;;12.65;77.07;101242.50;4965828;28;20047;-47
2022/11/12 10:04:53;;;;;;;15.38;7.38;;;;;;;12.79;76.84;101245.19;4962710;28;20066;-46
2022/11/12 10:07:51;;;;;;;16.33;6.60;;;;;;;13.05;76.59;101241.91;4950767;28;20150;-47
2022/11/12 10:13:45;;;;;;;13.88;7.10;;;;;;;13.42;76.48;101255.97;5028047;28;20400;-49
2022/11/12 10:24:50;;;;;;;14.93;7.47;;;;;;;14.97;73.72;101259.75;5050842;28;20388;-47
2022/11/12 10:27:19;;;;;;;14.38;8.35;;;;;;;15.22;72.91;101264.91;5001506;28;20604;-48
2022/11/12 10:30:05;;;;;;;12.48;8.07;;;;;;;15.33;72.81;101268.34;5018353;28;20073;-47
2022/11/12 10:32:35;;;;;;;13.52;7.50;;;;;;;15.39;72.24;101257.91;5006093;28;20287;-48
2022/11/12 10:35:03;;;;;;;11.88;7.65;;;;;;;15.50;72.13;101260.47;5010629;28;20050;-51
2022/11/12 10:40:28;;;;;;;13.43;5.70;;;;;;;15.60;71.87;101245.63;5106421;27;20418;-51
2022/11/12 10:42:59;;;;;;;12.32;6.03;;;;;;;15.72;71.64;101239.50;5070658;28;20317;-47
2022/11/12 10:45:26;;;;;;;15.85;6.25;;;;;;;15.80;70.95;101236.81;5072307;28;20072;-47
2022/11/12 10:47:53;;;;;;;10.15;5.50;;;;;;;15.78;70.90;101238.59;5070551;28;20696;-49
2022/11/12 10:53:01;;;;;;;12.77;6.00;;;;;;;15.58;70.86;101221.28;5029940;28;20398;-47
2022/11/12 10:55:37;;;;;;;11.00;5.10;;;;;;;15.34;70.35;101217.03;4995134;28;20078;-48
2022/11/12 10:58:20;;;;;;;11.18;6.20;;;;;;;14.98;70.35;101212.81;4993060;28;20057;-54
2022/11/12 11:03:35;;;;;;;11.10;6.35;;;;;;;14.70;71.29;101205.00;5056436;28;20902;-50
2022/11/12 11:06:20;;;;;;;11.73;4.90;;;;;;;14.55;71.57;101211.09;5018264;28;20058;-47
2022/11/12 11:08:50;;;;;;;13.57;6.80;;;;;;;14.58;71.78;101208.47;4996246;28;20824;-49
2022/11/12 11:11:27;;;;;;;10.38;5.22;;;;;;;14.48;72.12;101204.13;5017547;28;20053;-48
2022/11/12 11:13:56;;;;;;;12.93;5.38;;;;;;;14.61;72.42;101200.66;5014885;28;20085;-48
2022/11/12 11:16:25;;;;;;;11.63;5.45;;;;;;;14.78;72.96;101194.56;5015511;28;20144;-47
2022/11/12 11:33:08;;;;;;;9.77;4.55;;;;;;;15.28;71.82;101182.25;5018455;28;20813;-49
2022/11/12 11:43:57;;;;;;;12.52;4.88;;;;;;;15.18;71.53;101166.63;5035256;28;20406;-48
2022/11/12 11:49:46;;;;;;;10.55;4.82;;;;;;;15.10;72.06;101162.31;5017414;28;20756;-51
2022/11/12 11:52:43;;;;;;;10.25;5.93;;;;;;;15.06;72.31;101155.38;4986267;28;20088;-49
2022/11/12 11:55:39;;;;;;;9.27;5.38;;;;;;;15.12;71.84;101144.91;4982762;28;20778;-51
2022/11/12 11:58:34;;;;;;;10.95;4.50;;;;;;;15.03;72.49;101144.97;5006208;28;20141;-47
2022/11/12 12:04:06;;;;;;;12.93;5.78;;;;;;;15.14;71.40;101148.38;5035539;28;20411;-47
2022/11/12 12:06:50;;;;;;;10.55;5.50;;;;;;;15.16;71.58;101141.41;5006566;28;20112;-49
2022/11/12 12:09:34;;;;;;;8.32;5.40;;;;;;;15.07;72.29;101145.81;5023730;28;20057;-51
2022/11/12 12:12:32;;;;;;;9.52;5.80;;;;;;;15.09;72.35;101139.69;5007658;28;20172;-49
2022/11/12 12:23:40;;;;;;;9.48;6.30;;;;;;;15.15;72.23;101133.59;5054116;27;20408;-51
2022/11/12 12:26:14;;;;;;;8.70;5.68;;;;;;;15.11;72.84;101126.66;5041491;28;20148;-48
2022/11/12 12:28:47;;;;;;;13.60;6.18;;;;;;;15.12;72.46;101121.44;5050324;28;20083;-48
2022/11/12 12:31:19;;;;;;;9.70;5.65;;;;;;;15.08;72.90;101122.31;5043792;28;20102;-50
2022/11/12 12:33:51;;;;;;;12.10;7.32;;;;;;;15.18;72.77;101117.94;5043531;28;20182;-51
2022/11/12 12:36:25;;;;;;;10.25;5.03;;;;;;;15.13;72.96;101111.88;5038928;28;20392;-48
2022/11/12 12:39:16;;;;;;;11.27;5.85;;;;;;;15.11;72.31;101111.88;5034989;28;20144;-48
2022/11/12 12:44:58;;;;;;;10.10;4.93;;;;;;;15.17;72.72;101105.75;5036766;27;20417;-48
2022/11/12 12:47:14;;;;;;;6.95;4.28;;;;;;;15.14;72.61;101104.00;5027810;28;20104;-50
2022/11/12 12:49:42;;;;;;;8.60;4.72;;;;;;;15.26;71.91;101110.03;5023296;28;20068;-48
2022/11/12 12:52:11;;;;;;;9.00;4.40;;;;;;;15.25;72.74;101108.31;5037773;28;20133;-48
2022/11/12 12:57:29;;;;;;;10.00;5.97;;;;;;;15.44;72.33;101108.22;5101248;27;20372;-49
2022/11/12 13:03:00;;;;;;;10.13;4.13;;;;;;;15.35;72.57;101102.19;5057188;27;21018;-47